Albuquerque International Sunport Airport
KABQ : now visible

Airfield :











YOU CAN JOIN US ON...

 
LOGIN :

Register | Disclaimer

   EN    FR    IT 

 









Legend :    VFR   Marginal VFR   IFR   Intensive IFR   Very Intensive IFR
Visi :
Ceiling :
>= 8 km
>= 3000ft
5 to 8 km
1000 to 3000 ft
1500m to 5 km
500 to 1000 ft
800 to 1500m
200 to 500 ft
< 800m
< 200 ft
Symbols :   Thunderstorms  Fog  Heavy snow  Heavy precipitations  Wind > 20 kt






- Airport Elevation : 5355 ft
- IATA code : ABQ


KABQ - Albuquerque International Sunport

CURRENT METAR :
  • 301752Z VRB04KT 10SM FEW070 FEW300 28/10 A3022 RMK AO2 SLP140 CB DSNT S AND W T02780100 10283 20206 58010

EXPIRED METARs :
  • 301652Z VRB04KT 10SM FEW060 SCT300 26/11 A3023 RMK AO2 SLP147 T02610106
  • 301552Z 20007KT 10SM FEW070 SCT300 24/12 A3025 RMK AO2 SLP155 T02440117

TAF KABQ
Valid from the 30 at 18:00 until the 01 at 18:00 UTC


301728Z 3018/0118 26007KT P6SM FEW060
FM010000 30010G18KT P6SM BKN090
FM010500 VRB05KT P6SM BKN090
FM010900 08008KT P6SM FEW050 BKN100
KZAB FIR / North America



MET'MAP, your aeronautical weather chart ! - Copyright ORBIFLY December 2007 - Disclaimer

ORBIFLY MET'MAP TEAM :

Programming & Development : Alexandra Zaïnal
Original concept : Baudouin d'Aumeries
Technical & hardware support : Manuel Goepfert
Assistance : Marc-Olivier Méhu




SOURCES & CREDITS :

   NOAA       Earth
Advisory